WetterOnline ( http://www.wetteronline.de )

Wetter aktuell Mora

Aktuelles Wetter: Mora (197m)

6-stündlich | Neueste Meldungen
Ortszeit Temperatur Wetter
So, 24.06. 14:00 16.7° C bedeckt
So, 24.06. 8:00 13.6° C leicht bewölkt
So, 24.06. 2:00 7.7° C wolkenlos
Sa, 23.06. 20:00 18.2° C bewölkt
Sa, 23.06. 14:00 18.6° C leicht bewölkt
Sa, 23.06. 8:00 9.8° C leichte Schauer
Sa, 23.06. 2:00 7.1° C wolkenlos
Fr, 22.06. 20:00 11.5° C leicht bewölkt
Ortszeit Temperatur Wetter
So, 24.06. 14:20 18° C bewölkt
So, 24.06. 14:00 16.7° C bedeckt
So, 24.06. 13:50 18° C bewölkt
So, 24.06. 13:20 17° C bewölkt
So, 24.06. 13:00 16.4° C bedeckt
So, 24.06. 12:50 17° C bedeckt
So, 24.06. 12:20 16° C bedeckt
So, 24.06. 12:00 15.1° C bedeckt
So, 24.06. 11:20 15° C bedeckt
So, 24.06. 11:00 15.1° C bewölkt
Ortszeit Relative Feuchte Sichtweite
So, 24.06. 14:00 44% 45 km
So, 24.06. 8:00 56% 45 km
So, 24.06. 2:00 74% >50 km
Sa, 23.06. 20:00 36% >50 km
Sa, 23.06. 14:00 36% 30 km
Sa, 23.06. 8:00 59% 45 km
Sa, 23.06. 2:00 61% >50 km
Fr, 22.06. 20:00 48% >50 km
Ortszeit Relative Feuchte Sichtweite
So, 24.06. 14:20 45% >10 km
So, 24.06. 14:00 44% 45 km
So, 24.06. 13:50 45% >10 km
So, 24.06. 13:20 48% >10 km
So, 24.06. 13:00 45% 40 km
So, 24.06. 12:50 48% >10 km
So, 24.06. 12:20 51% >10 km
So, 24.06. 12:00 50% 40 km
So, 24.06. 11:20 55% >10 km
So, 24.06. 11:00 52% >50 km
Ortszeit Niederschlagsmenge Niederschlagsart
So, 24.06. 14:00 0.0 l/m2 in 6 Std. -
So, 24.06. 8:00 0.0 l/m2 in 12 Std. -
So, 24.06. 2:00 0.0 l/m2 in 6 Std. -
Sa, 23.06. 20:00 0.1 l/m2 in 12 Std. -
Sa, 23.06. 14:00 0.1 l/m2 in 6 Std. Regen
Sa, 23.06. 8:00 0.1 l/m2 in 12 Std. Schauer
Sa, 23.06. 2:00 0.0 l/m2 in 6 Std. -
Fr, 22.06. 20:00 0.1 l/m2 in 12 Std. Regenschauer
Ortszeit Niederschlagsmenge Niederschlagsart
So, 24.06. 14:20 keine Meldung -
So, 24.06. 14:00 0.0 l/m2 in 1 Std. -
So, 24.06. 13:50 keine Meldung -
So, 24.06. 13:20 keine Meldung -
So, 24.06. 13:00 0.0 l/m2 in 1 Std. -
So, 24.06. 12:50 keine Meldung -
So, 24.06. 12:20 keine Meldung -
So, 24.06. 12:00 0.0 l/m2 in 1 Std. -
So, 24.06. 11:20 keine Meldung -
So, 24.06. 11:00 0.0 l/m2 in 1 Std. -
Ortszeit Stärke Spitze Richtung
km/h Bft. km/h Grad Sektor
So, 24.06. 14:00 7 2 18 30° NO
So, 24.06. 8:00 7 2 18 350° N
So, 24.06. 2:00 4 1 7 330° NW
Sa, 23.06. 20:00 14 3 25 310° NW
Sa, 23.06. 14:00 18 3 36 300° NW
Sa, 23.06. 8:00 11 2 22 300° NW
Sa, 23.06. 2:00 7 2 22 290° W
Fr, 22.06. 20:00 22 4 47 310° NW
Ortszeit Stärke Spitze Richtung
km/h Bft. km/h Grad Sektor
So, 24.06. 14:20 7 2 - 30° NO
So, 24.06. 14:00 7 2 18 30° NO
So, 24.06. 13:50 11 2 - 30° NO
So, 24.06. 13:20 11 2 - 20° N
So, 24.06. 13:00 7 2 18 10° N
So, 24.06. 12:50 7 2 - 20° N
So, 24.06. 12:20 9 2 - 10° N
So, 24.06. 12:00 11 2 22 10° N
So, 24.06. 11:20 7 2 - 20° N
So, 24.06. 11:00 7 2 14 20° N
Ortszeit Untergrenze Bedeckung Gattung
total tief tief mittel hoch
So, 24.06. 14:00 1500 m 8/8 8/8 - - -
So, 24.06. 8:00 2100 m 4/8 4/8 - - -
So, 24.06. 2:00 - 0/8 0/8 - - -
Sa, 23.06. 20:00 2700 m 7/8 7/8 - - -
Sa, 23.06. 14:00 1800 m 2/8 2/8 - - -
Sa, 23.06. 8:00 1500 m 8/8 8/8 - - -
Sa, 23.06. 2:00 - 0/8 0/8 - - -
Fr, 22.06. 20:00 2400 m 3/8 3/8 - - -
Ortszeit Bedeckungsgrad in Achtel und Wolkenuntergrenze
So, 24.06. 14:20 5-7(1800m)
So, 24.06. 14:00 6(1500m) 8(1800m)
So, 24.06. 13:50 5-7(1800m)
So, 24.06. 13:20 3-4(1500m) 5-7(1800m)
So, 24.06. 13:00 8(1800m)
So, 24.06. 12:50 8(1800m)
So, 24.06. 12:20 5-7(1320m) 8(1800m)
So, 24.06. 12:00 7(1380m) 8(1800m)
So, 24.06. 11:20 8(1500m)
So, 24.06. 11:00 8(1440m) 7(1800m)
Ortszeit Luftdruck NN (hPa) Tendenz (hPa in 3 Std.)
So, 24.06. 14:00 1015 - 0,5
So, 24.06. 8:00 1016 + 0,4
So, 24.06. 2:00 1015 + 1,1
Sa, 23.06. 20:00 1010 + 0,5
Sa, 23.06. 14:00 1010 - 0,1
Sa, 23.06. 8:00 1010 + 1,1
Sa, 23.06. 2:00 1008 + 0,9
Fr, 22.06. 20:00 1005 + 1,6
Ortszeit Luftdruck NN (hPa) Tendenz (hPa in 3 Std.)
So, 24.06. 14:20 1015 keine Meldung
So, 24.06. 14:00 1015 - 0,5
So, 24.06. 13:50 1015 keine Meldung
So, 24.06. 13:20 1016 keine Meldung
So, 24.06. 13:00 1016 0,0
So, 24.06. 12:50 1016 keine Meldung
So, 24.06. 12:20 1016 keine Meldung
So, 24.06. 12:00 1016 + 0,2
So, 24.06. 11:20 1016 keine Meldung
So, 24.06. 11:00 1016 + 0,4
Ortszeit Schneehöhe (cm)
So, 24.06. 14:00 -
So, 24.06. 8:00 -
So, 24.06. 2:00 -
Sa, 23.06. 20:00 -
Sa, 23.06. 14:00 -
Sa, 23.06. 8:00 -
Sa, 23.06. 2:00 -
Fr, 22.06. 20:00 -
Ortszeit Schneehöhe (cm)
So, 24.06. 14:20 -
So, 24.06. 14:00 -
So, 24.06. 13:50 -
So, 24.06. 13:20 -
So, 24.06. 13:00 -
So, 24.06. 12:50 -
So, 24.06. 12:20 -
So, 24.06. 12:00 -
So, 24.06. 11:20 -
So, 24.06. 11:00 -
Link zu dieser Seite / Seite empfehlen

Das Wetter in ...